TimePDT,TemperatureF,Dew PointF,Humidity,Sea Level PressureIn,VisibilityMPH,Wind Direction,Wind SpeedMPH,Gust SpeedMPH,PrecipitationIn,Events,Conditions,WindDirDegrees,DateUTC
12:53 AM,52.0,50.0,93,29.94,6.0,SSE,4.6,-,N/A,,Scattered Clouds,150,2013-07-14 07:53:00
12:58 AM,51.8,50.0,94,29.95,6.0,SSE,4.6,-,N/A,,Mostly Cloudy,150,2013-07-14 07:58:00
1:53 AM,52.0,51.1,97,29.94,5.0,Calm,Calm,-,N/A,,Overcast,0,2013-07-14 08:53:00
2:53 AM,52.0,51.1,97,29.94,4.0,Calm,Calm,-,N/A,,Overcast,0,2013-07-14 09:53:00
3:53 AM,52.0,51.1,97,29.94,3.0,Calm,Calm,-,N/A,,Overcast,0,2013-07-14 10:53:00
4:20 AM,51.8,51.8,100,29.95,2.5,Calm,Calm,-,N/A,,Overcast,0,2013-07-14 11:20:00
4:33 AM,51.8,51.8,100,29.95,3.0,Calm,Calm,-,N/A,,Overcast,0,2013-07-14 11:33:00
4:41 AM,51.8,51.8,100,29.95,2.0,Calm,Calm,-,N/A,,Overcast,0,2013-07-14 11:41:00
4:53 AM,52.0,51.1,97,29.94,3.0,Calm,Calm,-,N/A,,Overcast,0,2013-07-14 11:53:00
5:53 AM,52.0,51.1,97,29.95,2.5,Calm,Calm,-,N/A,,Overcast,0,2013-07-14 12:53:00
6:05 AM,51.8,51.8,100,29.97,3.0,Calm,Calm,-,N/A,,Overcast,0,2013-07-14 13:05:00
6:26 AM,51.8,51.8,100,29.97,2.0,ESE,3.5,-,N/A,,Overcast,120,2013-07-14 13:26:00
6:40 AM,51.8,50.0,94,29.98,3.0,ESE,3.5,-,N/A,,Overcast,120,2013-07-14 13:40:00
6:53 AM,52.0,50.0,93,29.96,3.0,Calm,Calm,-,N/A,,Overcast,0,2013-07-14 13:53:00
7:53 AM,53.1,51.1,93,29.97,3.0,Calm,Calm,-,N/A,,Overcast,0,2013-07-14 14:53:00
8:03 AM,53.6,51.8,94,29.99,3.0,Calm,Calm,-,N/A,,Overcast,0,2013-07-14 15:03:00
8:53 AM,54.0,51.1,90,29.98,3.0,Calm,Calm,-,N/A,,Overcast,0,2013-07-14 15:53:00
9:53 AM,55.9,51.1,84,29.98,7.0,South,3.5,-,N/A,,Overcast,190,2013-07-14 16:53:00
10:00 AM,57.2,51.8,82,30.00,7.0,South,3.5,-,N/A,,Overcast,180,2013-07-14 17:00:00
10:23 AM,60.8,51.8,72,29.99,8.0,Variable,4.6,-,N/A,,Mostly Cloudy,0,2013-07-14 17:23:00
10:48 AM,60.8,51.8,72,29.99,9.0,Variable,4.6,-,N/A,,Scattered Clouds,0,2013-07-14 17:48:00
10:53 AM,62.1,52.0,70,29.97,9.0,South,3.5,-,N/A,,Partly Cloudy,180,2013-07-14 17:53:00
11:53 AM,68.0,52.0,56,29.96,10.0,SSW,5.8,-,N/A,,Haze,210,2013-07-14 18:53:00
12:53 PM,73.0,54.0,51,29.95,10.0,SSW,8.1,-,N/A,,Haze,200,2013-07-14 19:53:00
1:53 PM,75.9,54.0,46,29.94,10.0,South,11.5,-,N/A,,Clear,180,2013-07-14 20:53:00
2:53 PM,75.0,53.1,46,29.92,10.0,South,12.7,-,N/A,,Clear,180,2013-07-14 21:53:00
3:53 PM,73.9,53.1,48,29.90,10.0,South,12.7,-,N/A,,Clear,190,2013-07-14 22:53:00
4:53 PM,75.0,53.1,46,29.88,10.0,SSE,12.7,-,N/A,,Clear,160,2013-07-14 23:53:00
5:53 PM,72.0,53.1,51,29.87,10.0,SSE,10.4,-,N/A,,Partly Cloudy,160,2013-07-15 00:53:00
6:53 PM,66.0,52.0,60,29.87,10.0,South,12.7,-,N/A,,Clear,180,2013-07-15 01:53:00
7:53 PM,61.0,51.1,70,29.88,10.0,South,10.4,-,N/A,,Clear,170,2013-07-15 02:53:00
8:53 PM,54.0,50.0,86,29.89,10.0,South,8.1,-,N/A,,Clear,170,2013-07-15 03:53:00
9:36 PM,53.6,50.0,88,29.92,10.0,SSE,6.9,-,N/A,,Scattered Clouds,160,2013-07-15 04:36:00
9:45 PM,53.6,50.0,88,29.92,10.0,SSE,6.9,-,N/A,,Mostly Cloudy,160,2013-07-15 04:45:00
9:53 PM,53.1,50.0,89,29.91,10.0,SSE,9.2,-,N/A,,Mostly Cloudy,150,2013-07-15 04:53:00
10:53 PM,53.1,50.0,89,29.92,10.0,South,6.9,-,N/A,,Overcast,180,2013-07-15 05:53:00
11:09 PM,53.6,50.0,88,29.93,10.0,SSE,5.8,-,N/A,,Overcast,150,2013-07-15 06:09:00
11:53 PM,53.1,50.0,89,29.91,10.0,SSW,3.5,-,N/A,,Overcast,200,2013-07-15 06:53:00